createdAt,value
2023-02-11T00:01:27.750Z,2.35
2023-02-11T00:03:55.590Z,2.33
2023-02-11T00:06:22.844Z,2.33
2023-02-11T00:08:50.424Z,2.36
2023-02-11T00:11:19.977Z,2.42
2023-02-11T00:13:47.573Z,2.41
2023-02-11T00:16:18.015Z,2.34
2023-02-11T00:18:45.998Z,2.36
2023-02-11T00:21:19.568Z,2.43
2023-02-11T00:23:47.099Z,2.49
2023-02-11T00:26:17.276Z,2.56
2023-02-11T00:28:44.755Z,2.70
2023-02-11T00:31:12.893Z,2.71
2023-02-11T00:33:41.893Z,2.72
2023-02-11T00:36:12.039Z,2.76
2023-02-11T00:38:39.447Z,2.84
2023-02-11T00:41:07.774Z,2.80
2023-02-11T00:43:36.437Z,2.88
2023-02-11T00:46:07.203Z,2.82
2023-02-11T00:48:34.628Z,2.85
2023-02-11T00:51:02.400Z,2.90
2023-02-11T00:53:29.715Z,2.97
2023-02-11T00:55:57.191Z,2.96
2023-02-11T00:58:24.772Z,2.96
2023-02-11T01:00:52.347Z,2.98
2023-02-11T01:03:19.573Z,3.03
2023-02-11T01:05:47.205Z,3.04
2023-02-11T01:08:14.627Z,3.09
2023-02-11T01:10:41.935Z,3.08
2023-02-11T01:13:09.210Z,3.14
2023-02-11T01:15:36.504Z,3.11
2023-02-11T01:18:05.466Z,3.15
2023-02-11T01:20:32.836Z,3.13
2023-02-11T01:23:00.039Z,3.19
2023-02-11T01:25:27.257Z,3.25
2023-02-11T01:27:54.527Z,3.22
2023-02-11T01:30:21.892Z,3.20
2023-02-11T01:32:49.105Z,3.31
2023-02-11T01:35:16.526Z,3.13
2023-02-11T01:37:43.954Z,3.19
2023-02-11T01:40:18.010Z,3.21
2023-02-11T01:42:45.210Z,3.24
2023-02-11T01:45:57.677Z,3.28
2023-02-11T01:48:30.434Z,3.21
2023-02-11T01:51:06.026Z,3.25
2023-02-11T01:53:52.148Z,3.20
2023-02-11T01:56:38.921Z,3.26
2023-02-11T01:59:14.556Z,3.35
2023-02-11T02:01:44.157Z,3.35
2023-02-11T02:04:12.205Z,3.38
2023-02-11T02:06:51.221Z,3.41
2023-02-11T02:09:23.877Z,3.39
2023-02-11T02:11:51.763Z,3.36
2023-02-11T02:14:19.014Z,3.47
2023-02-11T02:16:46.265Z,3.50
2023-02-11T02:19:41.186Z,3.46
2023-02-11T02:22:17.454Z,3.46
2023-02-11T02:24:49.412Z,3.47
2023-02-11T02:27:44.322Z,3.56
2023-02-11T02:30:11.381Z,3.53
2023-02-11T02:33:07.904Z,3.62
2023-02-11T02:36:02.934Z,3.70
2023-02-11T02:38:44.709Z,3.68
2023-02-11T02:41:14.387Z,3.67
2023-02-11T02:43:44.778Z,3.66
2023-02-11T02:46:19.020Z,3.67
2023-02-11T02:48:47.191Z,3.70
2023-02-11T02:51:27.464Z,3.76
2023-02-11T02:54:36.892Z,3.82
2023-02-11T02:57:23.003Z,3.88
2023-02-11T03:00:27.956Z,3.78
2023-02-11T03:03:10.145Z,3.82
2023-02-11T03:05:48.212Z,3.88
2023-02-11T03:08:30.650Z,3.89
2023-02-11T03:10:58.782Z,3.97
2023-02-11T03:13:33.405Z,3.92
2023-02-11T03:16:11.538Z,4.01
2023-02-11T03:18:41.849Z,3.94
2023-02-11T03:21:10.155Z,3.94
2023-02-11T03:23:50.754Z,3.94
2023-02-11T03:26:32.420Z,4.00
2023-02-11T03:29:20.952Z,4.00
2023-02-11T03:31:57.043Z,4.07
2023-02-11T03:34:44.351Z,4.04
2023-02-11T03:37:22.125Z,4.09
2023-02-11T03:40:01.601Z,4.13
2023-02-11T03:42:34.464Z,4.21
2023-02-11T03:45:08.758Z,4.19
2023-02-11T03:47:38.935Z,4.12
2023-02-11T03:50:09.299Z,4.11
2023-02-11T03:52:37.996Z,4.20
2023-02-11T03:55:12.413Z,4.15
2023-02-11T03:57:40.219Z,4.20
2023-02-11T04:00:08.733Z,4.12
2023-02-11T04:02:37.010Z,4.21
2023-02-11T04:05:05.284Z,4.22
2023-02-11T04:07:32.657Z,4.24
2023-02-11T04:09:59.964Z,4.26
2023-02-11T04:12:27.439Z,4.30
2023-02-11T04:14:54.672Z,4.28
2023-02-11T04:17:21.882Z,4.30
2023-02-11T04:19:49.086Z,4.25
2023-02-11T04:22:16.338Z,4.27
2023-02-11T04:24:44.107Z,4.28
2023-02-11T04:27:11.321Z,4.29
2023-02-11T04:29:38.604Z,4.29
2023-02-11T04:32:05.822Z,4.37
2023-02-11T04:34:33.062Z,4.37
2023-02-11T04:37:00.271Z,4.38
2023-02-11T04:39:27.510Z,4.37
2023-02-11T04:41:54.661Z,4.41
2023-02-11T04:44:21.944Z,4.39
2023-02-11T04:46:49.251Z,4.32
2023-02-11T04:49:17.410Z,4.27
2023-02-11T04:51:46.995Z,4.32
2023-02-11T04:54:16.384Z,4.32
2023-02-11T04:56:43.648Z,4.34
2023-02-11T04:59:11.822Z,4.40
2023-02-11T05:01:39.293Z,4.34
2023-02-11T05:04:06.564Z,4.35
2023-02-11T05:06:33.814Z,4.37
2023-02-11T05:09:01.138Z,4.39
2023-02-11T05:11:28.404Z,4.47
2023-02-11T05:13:55.789Z,4.41
2023-02-11T05:16:23.123Z,4.43
2023-02-11T05:18:52.460Z,4.48
2023-02-11T05:21:20.101Z,4.38
2023-02-11T05:23:47.608Z,4.46
2023-02-11T05:26:15.640Z,4.41
2023-02-11T05:28:43.081Z,4.46
2023-02-11T05:31:11.079Z,4.45
2023-02-11T05:33:38.484Z,4.47
2023-02-11T05:36:10.521Z,4.53
2023-02-11T05:38:38.369Z,4.46
2023-02-11T05:41:06.346Z,4.56
2023-02-11T05:43:35.374Z,4.46
2023-02-11T05:46:03.530Z,4.54
2023-02-11T05:48:31.309Z,4.49
2023-02-11T05:50:58.610Z,4.51
2023-02-11T05:53:25.899Z,4.52
2023-02-11T05:55:53.515Z,4.55
2023-02-11T05:58:20.803Z,4.51
2023-02-11T06:00:48.033Z,4.58
2023-02-11T06:03:15.304Z,4.59
2023-02-11T06:05:44.134Z,4.67
2023-02-11T06:08:11.409Z,4.65
2023-02-11T06:10:38.804Z,4.67
2023-02-11T06:13:06.036Z,4.65
2023-02-11T06:15:33.258Z,4.61
2023-02-11T06:18:00.482Z,4.67
2023-02-11T06:20:27.732Z,4.66
2023-02-11T06:22:54.958Z,4.70
2023-02-11T06:25:22.158Z,4.70
2023-02-11T06:27:49.384Z,4.79
2023-02-11T06:30:16.579Z,4.75
2023-02-11T06:32:45.492Z,4.66
2023-02-11T06:35:13.662Z,4.60
2023-02-11T06:37:41.958Z,4.75
2023-02-11T06:40:10.071Z,4.78
2023-02-11T06:42:39.351Z,4.75
2023-02-11T06:45:09.107Z,4.74
2023-02-11T06:47:36.612Z,4.68
2023-02-11T06:50:03.996Z,4.69
2023-02-11T06:52:31.427Z,4.73
2023-02-11T06:54:58.657Z,4.72
2023-02-11T06:57:25.867Z,4.78
2023-02-11T06:59:53.108Z,4.85
2023-02-11T07:02:21.101Z,4.79
2023-02-11T07:04:48.596Z,4.78
2023-02-11T07:07:15.941Z,4.77
2023-02-11T07:09:43.145Z,4.85
2023-02-11T07:12:11.132Z,4.94
2023-02-11T07:14:38.503Z,4.90
2023-02-11T07:17:05.885Z,4.99
2023-02-11T07:19:33.075Z,4.98
2023-02-11T07:22:00.297Z,5.08
2023-02-11T07:24:27.589Z,5.04
2023-02-11T07:26:55.146Z,5.04
2023-02-11T07:29:22.399Z,5.05
2023-02-11T07:31:50.289Z,5.14
2023-02-11T07:34:17.559Z,5.18
2023-02-11T07:36:45.170Z,5.23
2023-02-11T07:39:12.817Z,5.18
2023-02-11T07:41:40.077Z,5.21
2023-02-11T07:44:07.324Z,5.20
2023-02-11T07:46:36.864Z,5.26
2023-02-11T07:49:04.252Z,5.34
2023-02-11T07:51:31.755Z,5.37
2023-02-11T07:53:59.992Z,5.34
2023-02-11T07:56:28.273Z,5.38
2023-02-11T07:58:56.773Z,5.43
2023-02-11T08:01:28.290Z,5.44
2023-02-11T08:04:00.309Z,5.49
2023-02-11T08:06:30.212Z,5.46
2023-02-11T08:08:57.450Z,5.50
2023-02-11T08:11:27.272Z,5.53
2023-02-11T08:13:55.641Z,5.56
2023-02-11T08:16:34.359Z,5.61
2023-02-11T08:19:04.125Z,5.66
2023-02-11T08:21:31.519Z,5.67
2023-02-11T08:23:58.901Z,5.70
2023-02-11T08:26:28.949Z,5.71
2023-02-11T08:28:58.024Z,5.74
2023-02-11T08:31:27.575Z,5.77
2023-02-11T08:33:57.913Z,5.84
2023-02-11T08:36:29.086Z,5.93
2023-02-11T08:39:12.158Z,5.88
2023-02-11T08:41:45.337Z,5.96
2023-02-11T08:44:12.879Z,5.91
2023-02-11T08:46:40.563Z,5.91
2023-02-11T08:49:07.806Z,5.86
2023-02-11T08:51:35.110Z,5.93
2023-02-11T08:54:02.387Z,5.92
2023-02-11T08:56:31.614Z,5.94
2023-02-11T08:59:00.351Z,5.91
2023-02-11T09:01:29.937Z,5.88
2023-02-11T09:03:58.123Z,5.97
2023-02-11T09:06:26.469Z,5.98
2023-02-11T09:08:56.604Z,5.98
2023-02-11T09:11:27.979Z,6.07
2023-02-11T09:13:55.183Z,6.02
2023-02-11T09:16:24.901Z,6.09
2023-02-11T09:18:52.402Z,6.17
2023-02-11T09:21:20.193Z,6.16
2023-02-11T09:23:48.531Z,6.16
2023-02-11T09:26:21.917Z,6.23
2023-02-11T09:28:51.403Z,6.21
2023-02-11T09:31:21.708Z,6.23
2023-02-11T09:33:51.021Z,6.30
2023-02-11T09:36:22.058Z,6.29
2023-02-11T09:38:49.914Z,6.31
2023-02-11T09:41:32.041Z,6.35
2023-02-11T09:44:04.854Z,6.32
2023-02-11T09:46:35.611Z,6.45
2023-02-11T09:49:04.690Z,6.39
2023-02-11T09:52:21.422Z,6.43
2023-02-11T09:55:06.618Z,6.48
2023-02-11T09:57:36.174Z,6.53
2023-02-11T10:00:21.093Z,6.57
2023-02-11T10:03:14.022Z,6.53
2023-02-11T10:06:05.863Z,6.63
2023-02-11T10:08:53.205Z,6.66
2023-02-11T10:11:36.847Z,6.74
2023-02-11T10:14:25.170Z,6.65
2023-02-11T10:17:30.026Z,6.67
2023-02-11T10:20:25.201Z,6.66
2023-02-11T10:22:58.681Z,6.73
2023-02-11T10:25:43.147Z,6.74
2023-02-11T10:28:17.560Z,6.72
2023-02-11T10:30:58.142Z,6.71
2023-02-11T10:33:45.361Z,6.75
2023-02-11T10:36:14.184Z,6.65
2023-02-11T10:38:41.648Z,6.70
2023-02-11T10:41:16.783Z,6.69
2023-02-11T10:43:44.262Z,6.74
2023-02-11T10:46:19.430Z,6.79
2023-02-11T10:48:52.911Z,6.72
2023-02-11T10:51:26.837Z,6.75
2023-02-11T10:54:13.818Z,6.81
2023-02-11T10:56:46.131Z,6.83
2023-02-11T10:59:28.057Z,6.78
2023-02-11T11:02:00.690Z,6.89
2023-02-11T11:04:32.120Z,6.89
2023-02-11T11:07:23.865Z,6.83
2023-02-11T11:10:02.610Z,6.87
2023-02-11T11:12:44.802Z,6.93
2023-02-11T11:15:16.384Z,6.87
2023-02-11T11:17:43.608Z,6.91
2023-02-11T11:20:24.597Z,6.90
2023-02-11T11:22:54.981Z,6.92
2023-02-11T11:25:28.374Z,6.92
2023-02-11T11:28:02.881Z,6.89
2023-02-11T11:30:39.374Z,6.85
2023-02-11T11:33:21.792Z,6.80
2023-02-11T11:36:09.660Z,6.84
2023-02-11T11:39:25.344Z,6.89
2023-02-11T11:41:58.644Z,6.89
2023-02-11T11:44:37.195Z,6.94
2023-02-11T11:47:13.580Z,6.90
2023-02-11T11:49:43.503Z,6.92
2023-02-11T11:52:10.706Z,6.88
2023-02-11T11:54:39.391Z,6.87
2023-02-11T11:57:15.987Z,6.89
2023-02-11T11:59:43.382Z,6.95
2023-02-11T12:02:33.873Z,7.00
2023-02-11T12:05:37.850Z,6.98
2023-02-11T12:08:21.703Z,6.98
2023-02-11T12:11:12.933Z,6.99
2023-02-11T12:14:01.114Z,6.95
2023-02-11T12:17:11.361Z,6.94
2023-02-11T12:20:04.762Z,6.95
2023-02-11T12:22:48.797Z,7.03
2023-02-11T12:25:35.855Z,6.97
2023-02-11T12:28:29.919Z,6.99
2023-02-11T12:31:29.146Z,7.06
2023-02-11T12:34:17.346Z,7.09
2023-02-11T12:37:19.449Z,7.21
2023-02-11T12:40:03.499Z,7.19
2023-02-11T12:43:05.031Z,7.22
2023-02-11T12:46:18.472Z,7.21
2023-02-11T12:48:57.845Z,7.29
2023-02-11T12:51:42.787Z,7.38
2023-02-11T12:54:42.186Z,7.40
2023-02-11T12:57:31.142Z,7.35
2023-02-11T13:00:08.652Z,7.41
2023-02-11T13:02:55.101Z,7.40
2023-02-11T13:05:49.433Z,7.46
2023-02-11T13:08:21.649Z,7.44
2023-02-11T13:10:53.401Z,7.54
2023-02-11T13:13:31.918Z,7.48
2023-02-11T13:16:07.884Z,7.54
2023-02-11T13:18:42.916Z,7.63
2023-02-11T13:21:26.736Z,7.61
2023-02-11T13:24:20.098Z,7.69
2023-02-11T13:27:15.455Z,7.70
2023-02-11T13:30:18.782Z,7.62
2023-02-11T13:32:55.470Z,7.60
2023-02-11T13:35:32.732Z,7.62
2023-02-11T13:38:01.561Z,7.66
2023-02-11T13:40:37.765Z,7.69
2023-02-11T13:43:10.379Z,7.78
2023-02-11T13:45:47.841Z,7.73
2023-02-11T13:48:37.152Z,7.66
2023-02-11T13:51:08.861Z,7.65
2023-02-11T13:53:54.984Z,7.63
2023-02-11T13:56:34.009Z,7.68
2023-02-11T13:59:26.881Z,7.66
2023-02-11T14:02:12.855Z,7.66
2023-02-11T14:05:23.547Z,7.62
2023-02-11T14:08:27.921Z,7.77
2023-02-11T14:11:01.171Z,7.75
2023-02-11T14:13:28.879Z,7.66
2023-02-11T14:16:22.650Z,7.65
2023-02-11T14:18:55.433Z,7.68
2023-02-11T14:21:34.968Z,7.78
2023-02-11T14:24:03.153Z,7.76
2023-02-11T14:26:49.576Z,7.75
2023-02-11T14:29:20.134Z,7.72
2023-02-11T14:31:55.281Z,7.76
2023-02-11T14:34:59.392Z,7.77
2023-02-11T14:37:51.147Z,7.79
2023-02-11T14:40:30.222Z,7.82
2023-02-11T14:43:02.402Z,7.83
2023-02-11T14:45:31.132Z,7.90
2023-02-11T14:48:08.549Z,7.96
2023-02-11T14:50:59.089Z,7.88
2023-02-11T14:53:26.776Z,7.88
2023-02-11T14:55:55.550Z,7.87
2023-02-11T14:58:28.451Z,7.85
2023-02-11T15:01:06.526Z,7.81
2023-02-11T15:03:47.227Z,7.75
2023-02-11T15:06:22.721Z,7.83
2023-02-11T15:09:00.974Z,7.76
2023-02-11T15:11:32.010Z,7.73
2023-02-11T15:14:06.771Z,7.78
2023-02-11T15:16:36.027Z,7.67
2023-02-11T15:19:05.821Z,7.75
2023-02-11T15:21:35.068Z,7.60
2023-02-11T15:24:21.895Z,7.59
2023-02-11T15:27:08.118Z,7.63
2023-02-11T15:29:39.865Z,7.64
2023-02-11T15:32:15.102Z,7.63
2023-02-11T15:34:43.264Z,7.65
2023-02-11T15:37:14.582Z,7.61
2023-02-11T15:39:51.955Z,7.62
2023-02-11T15:42:34.075Z,7.62
2023-02-11T15:45:15.690Z,7.70
2023-02-11T15:47:49.086Z,7.71
2023-02-11T15:50:25.812Z,7.66
2023-02-11T15:52:53.582Z,7.64
2023-02-11T15:55:21.288Z,7.66
2023-02-11T15:57:59.082Z,7.64
2023-02-11T16:00:34.714Z,7.61
2023-02-11T16:03:02.162Z,7.65
2023-02-11T16:05:40.697Z,7.61
2023-02-11T16:08:24.659Z,7.57
2023-02-11T16:11:34.231Z,7.52
2023-02-11T16:14:05.809Z,7.52
2023-02-11T16:16:34.940Z,7.59
2023-02-11T16:19:05.171Z,7.52
2023-02-11T16:21:39.283Z,7.49
2023-02-11T16:24:07.656Z,7.44
2023-02-11T16:26:36.485Z,7.46
2023-02-11T16:29:25.166Z,7.49
2023-02-11T16:31:53.878Z,7.46
2023-02-11T16:34:23.591Z,7.47
2023-02-11T16:36:52.383Z,7.53
2023-02-11T16:39:22.492Z,7.54
2023-02-11T16:41:50.820Z,7.52
2023-02-11T16:44:23.200Z,7.45
2023-02-11T16:46:50.673Z,7.39
2023-02-11T16:49:27.394Z,7.50
2023-02-11T16:51:56.911Z,7.53
2023-02-11T16:54:24.266Z,7.44
2023-02-11T16:56:51.714Z,7.49
2023-02-11T16:59:19.168Z,7.50
2023-02-11T17:01:46.942Z,7.43
2023-02-11T17:04:21.261Z,7.44
2023-02-11T17:06:48.556Z,7.49
2023-02-11T17:09:22.927Z,7.49
2023-02-11T17:11:50.321Z,7.52
2023-02-11T17:14:18.161Z,7.47
2023-02-11T17:16:46.922Z,7.46
2023-02-11T17:19:15.837Z,7.45
2023-02-11T17:21:47.438Z,7.53
2023-02-11T17:24:16.506Z,7.51
2023-02-11T17:26:44.916Z,7.53
2023-02-11T17:29:14.662Z,7.52
2023-02-11T17:31:42.139Z,7.57
2023-02-11T17:34:11.697Z,7.62
2023-02-11T17:36:40.875Z,7.60
2023-02-11T17:39:08.423Z,7.60
2023-02-11T17:41:38.895Z,7.60
2023-02-11T17:44:07.656Z,7.63
2023-02-11T17:46:35.556Z,7.55
2023-02-11T17:49:03.137Z,7.56
2023-02-11T17:51:33.037Z,7.55
2023-02-11T17:54:06.530Z,7.59
2023-02-11T17:56:35.055Z,7.69
2023-02-11T17:59:02.943Z,7.65
2023-02-11T18:01:31.791Z,7.70
2023-02-11T18:03:59.179Z,7.65
2023-02-11T18:06:29.101Z,7.64
2023-02-11T18:08:59.577Z,7.63
2023-02-11T18:11:27.859Z,7.62
2023-02-11T18:13:55.122Z,7.66
2023-02-11T18:16:23.873Z,7.69
2023-02-11T18:18:51.241Z,7.67
2023-02-11T18:21:20.243Z,7.67
2023-02-11T18:23:48.386Z,7.72
2023-02-11T18:26:18.111Z,7.74
2023-02-11T18:28:46.204Z,7.76
2023-02-11T18:31:14.425Z,7.79
2023-02-11T18:33:42.266Z,7.69
2023-02-11T18:36:12.080Z,7.67
2023-02-11T18:38:40.006Z,7.66
2023-02-11T18:41:07.618Z,7.79
2023-02-11T18:43:35.173Z,7.71
2023-02-11T18:46:06.695Z,7.76
2023-02-11T18:48:34.091Z,7.75
2023-02-11T18:51:01.665Z,7.80
2023-02-11T18:53:28.955Z,7.79
2023-02-11T18:55:56.203Z,7.80
2023-02-11T18:58:23.498Z,7.80
2023-02-11T19:00:52.227Z,7.88
2023-02-11T19:03:19.454Z,7.81
2023-02-11T19:05:49.201Z,7.87
2023-02-11T19:08:17.168Z,7.88
2023-02-11T19:10:46.342Z,7.94
2023-02-11T19:13:14.008Z,7.88
2023-02-11T19:15:42.222Z,7.92
2023-02-11T19:18:09.759Z,7.85
2023-02-11T19:20:40.139Z,7.94
2023-02-11T19:23:07.687Z,8.00
2023-02-11T19:25:35.039Z,8.03
2023-02-11T19:28:03.261Z,7.98
2023-02-11T19:30:32.638Z,7.94
2023-02-11T19:32:59.805Z,7.98
2023-02-11T19:35:27.009Z,7.93
2023-02-11T19:37:54.235Z,7.84
2023-02-11T19:40:21.637Z,7.87
2023-02-11T19:42:49.163Z,7.93
2023-02-11T19:45:16.481Z,7.94
2023-02-11T19:47:43.706Z,7.98
2023-02-11T19:50:11.529Z,7.96
2023-02-11T19:52:40.262Z,7.91
2023-02-11T19:55:08.017Z,7.85
2023-02-11T19:57:36.337Z,7.79
2023-02-11T20:00:03.938Z,7.85
2023-02-11T20:02:31.222Z,7.80
2023-02-11T20:05:00.574Z,7.83
2023-02-11T20:07:29.566Z,7.91
2023-02-11T20:09:57.031Z,7.94
2023-02-11T20:12:24.334Z,7.90
2023-02-11T20:14:51.553Z,7.96
2023-02-11T20:17:18.738Z,7.92
2023-02-11T20:19:45.929Z,7.92
2023-02-11T20:22:13.251Z,7.94
2023-02-11T20:24:40.504Z,7.92
2023-02-11T20:27:08.421Z,7.89
2023-02-11T20:29:37.695Z,7.94
2023-02-11T20:32:05.451Z,7.96
2023-02-11T20:34:33.413Z,7.92
2023-02-11T20:37:00.696Z,7.97
2023-02-11T20:39:28.107Z,7.92
2023-02-11T20:41:56.481Z,7.84
2023-02-11T20:44:24.011Z,7.82
2023-02-11T20:46:53.189Z,7.84
2023-02-11T20:49:22.933Z,7.84
2023-02-11T20:51:52.037Z,7.82
2023-02-11T20:54:20.441Z,7.79
2023-02-11T20:56:48.522Z,7.82
2023-02-11T20:59:16.846Z,7.86
2023-02-11T21:01:46.739Z,7.84
2023-02-11T21:04:19.651Z,7.85
2023-02-11T21:06:49.006Z,7.89
2023-02-11T21:09:22.034Z,7.94
2023-02-11T21:11:51.615Z,7.93
2023-02-11T21:14:19.966Z,7.91
2023-02-11T21:16:48.279Z,7.85
2023-02-11T21:19:16.077Z,7.80
2023-02-11T21:21:43.492Z,7.78
2023-02-11T21:24:11.590Z,7.75
2023-02-11T21:26:38.889Z,7.80
2023-02-11T21:29:07.322Z,7.77
2023-02-11T21:31:36.104Z,7.68
2023-02-11T21:34:04.035Z,7.67
2023-02-11T21:36:31.298Z,7.69
2023-02-11T21:38:58.624Z,7.63
2023-02-11T21:41:27.452Z,7.62
2023-02-11T21:43:56.855Z,7.66
2023-02-11T21:46:26.177Z,7.59
2023-02-11T21:48:53.381Z,7.64
2023-02-11T21:51:23.275Z,7.58
2023-02-11T21:53:58.570Z,7.57
2023-02-11T21:56:28.048Z,7.58
2023-02-11T21:58:57.140Z,7.60
2023-02-11T22:01:33.844Z,7.62
2023-02-11T22:04:01.317Z,7.60
2023-02-11T22:06:34.120Z,7.60
2023-02-11T22:09:04.546Z,7.57
2023-02-11T22:11:31.733Z,7.54
2023-02-11T22:13:59.135Z,7.49
2023-02-11T22:16:27.566Z,7.45
2023-02-11T22:18:56.451Z,7.47
2023-02-11T22:21:24.052Z,7.42
2023-02-11T22:23:52.092Z,7.44
2023-02-11T22:26:23.013Z,7.42
2023-02-11T22:28:50.575Z,7.39
2023-02-11T22:31:20.306Z,7.35
2023-02-11T22:33:48.002Z,7.39
2023-02-11T22:36:20.725Z,7.39
2023-02-11T22:38:48.572Z,7.44
2023-02-11T22:41:17.141Z,7.38
2023-02-11T22:43:44.925Z,7.37
2023-02-11T22:46:14.531Z,7.39
2023-02-11T22:48:42.036Z,7.40
2023-02-11T22:51:19.287Z,7.45
2023-02-11T22:53:53.890Z,7.49
2023-02-11T22:56:21.819Z,7.41
2023-02-11T22:58:49.778Z,7.47
2023-02-11T23:01:17.390Z,7.37
2023-02-11T23:03:44.728Z,7.35
2023-02-11T23:06:12.331Z,7.28
2023-02-11T23:08:40.873Z,7.34
2023-02-11T23:11:11.557Z,7.35
2023-02-11T23:13:40.740Z,7.36
2023-02-11T23:16:11.066Z,7.34
2023-02-11T23:18:39.900Z,7.41
2023-02-11T23:21:12.403Z,7.44
2023-02-11T23:23:40.154Z,7.43
2023-02-11T23:26:11.032Z,7.33
2023-02-11T23:28:38.639Z,7.39
2023-02-11T23:31:20.097Z,7.39
2023-02-11T23:33:48.576Z,7.36
2023-02-11T23:36:17.169Z,7.26
2023-02-11T23:38:44.614Z,7.34
2023-02-11T23:41:12.306Z,7.42
2023-02-11T23:43:39.659Z,7.30
2023-02-11T23:46:11.963Z,7.28
2023-02-11T23:48:40.534Z,7.29
2023-02-11T23:51:09.791Z,7.33
2023-02-11T23:53:38.294Z,7.35
2023-02-11T23:56:10.777Z,7.41
2023-02-11T23:58:38.148Z,7.42
